Terminal Aerodrome Forecast
Issued by NWS

Home | Current Version | Previous Version | Text Only | Print | Product List | Glossary On
Versions: 1 2 3 4 5 6 7 8 9 10 11 12 13 14 15 16 17 18 19 20 21 22 23 24
000
FTUS43 KILX 211700 RRA
TAFCMI
TAF
KCMI 211741Z 2118/2218 30016G27KT P6SM SCT045
      TEMPO 2118/2119 BKN045
     FM211900 31015G25KT P6SM BKN045
     FM220000 34008KT P6SM BKN040
     FM220400 35006KT P6SM SCT040
     FM220700 34004KT P6SM SKC
     FM221500 36006KT P6SM FEW040=

USA.gov is the U.S. government's official web portal to all federal, state and local government web resources and services.